Time;durP1;ratioP1;P1;durP2;ratioP2;P2;SDS_P1;SDS_P2;PMS_P1;PMS_P2;Temp;Humidity;BMP_temperature;BMP_pressure;BME280_temperature;BME280_humidity;BME280_pressure;Samples;Min_cycle;Max_cycle;Signal;HPM_P1;HPM_P2
2023/06/09 00:02:25;;;;;;;2.78;2.58;;;;;;;-146.24;76.99;47032.53;5089271;28;20333;-86
2023/06/09 00:04:54;;;;;;;1.70;1.60;;;;;;;-146.24;76.99;47032.53;5089358;28;20201;-87
2023/06/09 00:07:22;;;;;;;2.92;2.40;;;;;;;-146.24;76.99;47032.53;5089347;28;20197;-86
2023/06/09 00:09:49;;;;;;;1.88;1.77;;;;;;;-146.24;76.99;47032.53;5089850;28;20211;-86
2023/06/09 00:12:16;;;;;;;1.90;1.80;;;;;;;-146.24;76.99;47032.53;5089232;28;20218;-87
2023/06/09 00:14:43;;;;;;;8.43;2.15;;;;;;;-146.24;76.94;47019.09;5089212;28;20203;-87
2023/06/09 00:17:10;;;;;;;1.60;1.58;;;;;;;-146.24;77.21;47051.72;5088810;28;20225;-86
2023/06/09 00:19:37;;;;;;;1.80;1.80;;;;;;;-146.24;77.21;47051.72;5089296;28;20222;-87
2023/06/09 00:22:13;;;;;;;2.40;2.28;;;;;;;-146.24;77.21;47051.72;5088941;28;20245;-86
2023/06/09 00:24:40;;;;;;;2.13;1.85;;;;;;;-146.24;78.07;47024.88;5089371;28;20190;-87
2023/06/09 00:27:08;;;;;;;2.13;2.00;;;;;;;-146.24;78.07;47024.88;5089763;28;20642;-86
2023/06/09 00:29:36;;;;;;;1.80;1.70;;;;;;;-146.24;78.07;47024.88;5088725;28;20201;-85
2023/06/09 00:32:03;;;;;;;2.72;2.20;;;;;;;-146.24;79.35;47072.81;5089275;28;20198;-87
2023/06/09 00:34:30;;;;;;;1.98;1.70;;;;;;;-146.24;79.35;47072.81;5089296;28;20211;-86
2023/06/09 00:36:57;;;;;;;2.65;2.35;;;;;;;-146.24;79.35;47072.81;5088903;28;20221;-86
2023/06/09 00:39:26;;;;;;;3.35;1.63;;;;;;;-146.24;79.35;47072.81;5090304;28;20197;-86
2023/06/09 00:41:53;;;;;;;1.80;1.80;;;;;;;-146.24;79.35;47072.81;5092209;28;20645;-87
2023/06/09 00:44:20;;;;;;;6.32;1.90;;;;;;;-146.24;79.35;47072.81;5092702;28;20208;-86
2023/06/09 00:46:47;;;;;;;2.13;1.98;;;;;;;-146.24;79.35;47072.81;5092414;28;20653;-87
2023/06/09 00:49:15;;;;;;;2.13;1.92;;;;;;;-146.24;79.35;47072.81;5092920;28;20204;-87
2023/06/09 00:51:42;;;;;;;3.67;2.30;;;;;;;-146.24;79.35;47072.81;5092567;28;20219;-86
2023/06/09 00:54:10;;;;;;;1.92;1.83;;;;;;;-146.24;79.35;47072.81;5092575;28;20211;-86
2023/06/09 00:56:40;;;;;;;2.55;2.17;;;;;;;-146.24;79.35;47072.81;5092391;28;20197;-87
2023/06/09 00:59:09;;;;;;;2.03;1.63;;;;;;;-146.24;79.35;47072.81;5092028;28;20642;-87
2023/06/09 01:01:36;;;;;;;2.08;1.98;;;;;;;-146.24;79.35;47072.81;5092126;28;20242;-86
2023/06/09 01:04:04;;;;;;;2.47;2.33;;;;;;;-146.24;79.35;47072.81;5092306;28;20205;-87
2023/06/09 01:06:40;;;;;;;1.58;1.50;;;;;;;-146.24;79.35;47072.81;5092338;28;20213;-87
2023/06/09 01:09:15;;;;;;;2.15;2.05;;;;;;;-146.24;79.35;47072.81;5092115;28;20203;-86
2023/06/09 01:11:52;;;;;;;2.70;1.80;;;;;;;-146.24;79.35;47072.81;5092015;28;20723;-86
2023/06/09 01:14:25;;;;;;;1.90;1.80;;;;;;;-146.24;79.35;47072.81;5091954;28;20203;-87
2023/06/09 01:17:00;;;;;;;3.85;2.05;;;;;;;-146.24;79.08;47026.78;5092208;28;20199;-86
2023/06/09 01:19:33;;;;;;;5.83;1.60;;;;;;;-146.24;79.08;47026.78;5092141;28;20207;-85
2023/06/09 01:22:04;;;;;;;2.30;2.08;;;;;;;-146.24;79.08;47026.78;5091477;28;20228;-86
2023/06/09 01:24:45;;;;;;;1.30;1.30;;;;;;;-146.24;79.08;47026.78;5091823;28;20197;-87
2023/06/09 01:27:16;;;;;;;3.00;1.83;;;;;;;-146.24;79.08;47026.78;5091736;28;20642;-86
2023/06/09 01:29:45;;;;;;;2.03;1.92;;;;;;;-146.24;79.08;47026.78;5091533;28;20623;-87
2023/06/09 01:32:15;;;;;;;1.87;1.73;;;;;;;-146.24;79.08;47026.78;5091377;28;20196;-86
2023/06/09 01:34:43;;;;;;;1.67;1.60;;;;;;;-146.24;79.08;47026.78;5091458;28;20680;-86
2023/06/09 01:37:10;;;;;;;1.70;1.33;;;;;;;-146.24;79.08;47026.78;5092362;28;20200;-85
2023/06/09 01:39:37;;;;;;;1.63;1.53;;;;;;;-146.24;79.08;47026.78;5091656;28;20236;-86
2023/06/09 01:42:05;;;;;;;1.87;1.77;;;;;;;-146.25;79.08;47026.78;5091249;28;20294;-86
2023/06/09 01:44:34;;;;;;;2.20;2.10;;;;;;;-146.24;79.08;47026.78;5091323;28;20200;-86
2023/06/09 01:47:02;;;;;;;36.47;15.03;;;;;;;-146.24;79.08;47026.78;5091364;28;20207;-87
2023/06/09 01:49:37;;;;;;;3.20;2.40;;;;;;;-146.24;81.37;66944.44;5090734;28;20232;-88
2023/06/09 01:52:10;;;;;;;2.00;1.90;;;;;;;-146.24;81.37;47065.16;5091063;28;20228;-86
2023/06/09 01:54:41;;;;;;;1.23;1.23;;;;;;;-146.24;81.37;47065.16;5091626;28;20306;-86
2023/06/09 01:57:15;;;;;;;1.70;1.60;;;;;;;-146.25;100.00;57403.91;5090831;28;20197;-87
2023/06/09 01:59:51;;;;;;;1.57;1.50;;;;;;;-146.25;100.00;57403.91;5091134;28;20498;-87
2023/06/09 02:02:20;;;;;;;1.97;1.87;;;;;;;-146.25;100.00;57403.91;5091371;28;20749;-87
2023/06/09 02:04:52;;;;;;;2.80;2.30;;;;;;;-146.25;100.00;57403.91;5090987;28;20214;-86
2023/06/09 02:07:19;;;;;;;4.53;1.83;;;;;;;-146.25;100.00;57403.91;5091027;28;20581;-86
2023/06/09 02:09:47;;;;;;;2.27;1.90;;;;;;;-146.25;100.00;57403.91;5090865;28;20222;-87
2023/06/09 02:12:14;;;;;;;0.90;0.90;;;;;;;-146.25;100.00;57403.91;5091040;28;20226;-86
2023/06/09 02:14:42;;;;;;;2.53;2.43;;;;;;;-146.25;100.00;57403.91;5090969;28;20252;-86
2023/06/09 02:17:10;;;;;;;2.90;1.73;;;;;;;-146.25;100.00;57403.91;5090897;28;20218;-87
2023/06/09 02:19:38;;;;;;;1.97;1.87;;;;;;;-146.25;100.00;57403.91;5090739;28;20641;-86
2023/06/09 02:22:06;;;;;;;1.93;1.53;;;;;;;-146.25;100.00;57403.91;5090781;28;20252;-88
2023/06/09 02:24:34;;;;;;;2.40;1.57;;;;;;;-146.25;100.00;57403.91;5090419;28;20206;-87
2023/06/09 02:27:03;;;;;;;1.10;1.10;;;;;;;-146.25;100.00;57403.91;5090640;28;20203;-86
2023/06/09 02:29:30;;;;;;;1.60;1.50;;;;;;;-146.25;100.00;57403.91;5090710;28;20683;-87
2023/06/09 02:31:59;;;;;;;2.30;2.07;;;;;;;-146.25;100.00;57403.91;5091025;28;20217;-86
2023/06/09 02:34:29;;;;;;;1.13;1.13;;;;;;;-146.25;100.00;57403.91;5090423;28;20204;-87
2023/06/09 02:36:59;;;;;;;1.50;1.40;;;;;;;-146.25;100.00;57403.91;5090669;28;20207;-86
2023/06/09 02:39:26;;;;;;;1.80;1.70;;;;;;;-146.25;100.00;57403.91;5090345;28;20198;-85
2023/06/09 02:41:53;;;;;;;1.83;1.53;;;;;;;-146.25;100.00;57403.91;5089374;28;20230;-86
2023/06/09 02:44:21;;;;;;;5.93;1.77;;;;;;;-146.25;100.00;57403.91;5089463;28;20767;-86
2023/06/09 02:46:48;;;;;;;2.07;1.90;;;;;;;-146.25;100.00;57403.91;5090002;28;20276;-87
2023/06/09 02:49:16;;;;;;;2.30;2.10;;;;;;;-146.25;100.00;57403.91;5090109;28;20305;-87
2023/06/09 02:51:44;;;;;;;1.80;1.70;;;;;;;-146.25;100.00;57403.91;5090673;28;20350;-87
2023/06/09 02:54:11;;;;;;;1.27;1.20;;;;;;;-146.25;100.00;57403.91;5090170;28;20193;-85
2023/06/09 02:56:38;;;;;;;1.63;1.57;;;;;;;-146.25;100.00;57403.91;5090084;28;20236;-86
2023/06/09 02:59:05;;;;;;;1.87;1.77;;;;;;;-146.25;100.00;57403.91;5089981;28;20594;-86
2023/06/09 03:01:34;;;;;;;1.97;1.87;;;;;;;-146.25;100.00;57403.91;5089065;28;20729;-87
2023/06/09 03:04:03;;;;;;;1.67;1.50;;;;;;;-146.25;100.00;57403.91;5090330;28;20289;-86
2023/06/09 03:06:32;;;;;;;1.53;1.50;;;;;;;-146.25;100.00;57403.91;5090561;28;20289;-85
2023/06/09 03:09:02;;;;;;;2.27;1.97;;;;;;;-146.25;100.00;57403.91;5091141;28;20205;-87
2023/06/09 03:11:29;;;;;;;6.70;4.37;;;;;;;-146.25;100.00;57403.91;5090615;28;20218;-87
2023/06/09 03:13:57;;;;;;;3.13;2.80;;;;;;;-146.25;100.00;57403.91;5093404;28;20209;-85
2023/06/09 03:16:24;;;;;;;1.80;1.70;;;;;;;-146.25;100.00;57403.91;5091333;28;20267;-87
2023/06/09 03:18:51;;;;;;;2.15;1.95;;;;;;;-146.25;100.00;57403.91;5090476;28;20205;-87
2023/06/09 03:21:18;;;;;;;2.08;1.98;;;;;;;-146.25;100.00;57403.91;5105232;28;20208;-86
2023/06/09 03:23:46;;;;;;;1.60;1.60;;;;;;;-146.25;100.00;57403.91;5111141;28;20243;-86
2023/06/09 03:26:15;;;;;;;4.32;2.15;;;;;;;-146.25;100.00;57403.91;5110254;28;20237;-86
2023/06/09 03:28:42;;;;;;;1.83;1.73;;;;;;;-146.25;100.00;57403.91;5110857;28;20236;-86
2023/06/09 03:31:09;;;;;;;2.67;2.28;;;;;;;-146.25;100.00;57403.91;5101939;28;20225;-87
2023/06/09 03:33:36;;;;;;;3.13;2.35;;;;;;;-146.25;100.00;57403.91;5100286;28;20257;-86
2023/06/09 03:36:03;;;;;;;2.22;2.00;;;;;;;-146.25;100.00;57403.91;5096918;28;20195;-88
2023/06/09 03:38:30;;;;;;;2.17;2.08;;;;;;;-146.25;100.00;57403.91;5097315;28;20662;-87
2023/06/09 03:40:58;;;;;;;2.00;1.90;;;;;;;-146.25;100.00;57403.91;5095509;28;20255;-87
2023/06/09 03:43:28;;;;;;;1.98;1.88;;;;;;;-146.25;100.00;57403.91;5090087;28;20226;-87
2023/06/09 03:45:55;;;;;;;3.58;2.28;;;;;;;-146.25;100.00;57403.91;5090255;28;20279;-86
2023/06/09 03:48:26;;;;;;;2.00;1.90;;;;;;;-146.25;100.00;57403.91;5089536;28;20198;-88
2023/06/09 03:50:53;;;;;;;1.30;1.30;;;;;;;-146.25;100.00;57403.91;5089951;28;20198;-88
2023/06/09 03:53:21;;;;;;;2.42;2.22;;;;;;;-146.25;100.00;57403.91;5089257;28;20619;-87
2023/06/09 03:55:48;;;;;;;3.13;1.92;;;;;;;-146.25;100.00;57403.91;5089574;28;20197;-88
2023/06/09 03:58:18;;;;;;;1.52;1.52;;;;;;;-146.25;100.00;57403.91;5088876;28;20255;-88
2023/06/09 04:00:47;;;;;;;2.33;2.20;;;;;;;-146.25;100.00;57403.91;5090122;28;20210;-88
2023/06/09 04:03:15;;;;;;;2.40;2.20;;;;;;;-146.25;100.00;57403.91;5088975;28;20328;-89
2023/06/09 04:05:42;;;;;;;1.70;1.60;;;;;;;-146.25;100.00;57403.91;5089125;28;20642;-88
2023/06/09 04:08:12;;;;;;;1.80;1.80;;;;;;;-146.25;100.00;57403.91;5089297;28;20206;-89
2023/06/09 04:10:40;;;;;;;1.58;1.52;;;;;;;-146.25;100.00;57403.91;5089164;28;20690;-87
2023/06/09 04:13:07;;;;;;;2.22;2.00;;;;;;;-146.25;100.00;57403.91;5090430;28;20201;-87
2023/06/09 04:15:34;;;;;;;3.30;1.80;;;;;;;-146.25;100.00;57403.91;5092983;28;20206;-87
2023/06/09 04:18:05;;;;;;;1.73;1.63;;;;;;;-146.25;100.00;57403.91;5093196;28;20313;-88
2023/06/09 04:20:34;;;;;;;1.98;1.98;;;;;;;-146.25;100.00;57403.91;5093126;28;20244;-87
2023/06/09 04:23:02;;;;;;;1.67;1.60;;;;;;;-146.25;100.00;57403.91;5092809;28;20234;-88
2023/06/09 04:25:29;;;;;;;4.97;1.92;;;;;;;-146.25;100.00;57403.91;5092808;28;20205;-87
2023/06/09 04:28:02;;;;;;;1.90;1.80;;;;;;;-146.25;100.00;57403.91;5092846;28;20237;-87
2023/06/09 04:30:36;;;;;;;2.35;2.17;;;;;;;-146.25;100.00;57403.91;5092874;28;20216;-87
2023/06/09 04:33:05;;;;;;;2.10;2.00;;;;;;;-146.25;100.00;57403.91;5092872;28;20277;-88
2023/06/09 04:35:32;;;;;;;2.05;1.95;;;;;;;-146.25;100.00;57403.91;5092894;28;20243;-88
2023/06/09 04:38:01;;;;;;;1.83;1.73;;;;;;;-146.25;100.00;57403.91;5092764;28;20209;-87
2023/06/09 04:40:29;;;;;;;3.50;2.33;;;;;;;-146.25;100.00;57403.91;5092231;28;20277;-88
2023/06/09 04:43:01;;;;;;;3.38;2.22;;;;;;;-146.25;100.00;57403.91;5092399;28;20225;-87
2023/06/09 04:45:29;;;;;;;3.28;3.05;;;;;;;-146.25;100.00;57403.91;5093111;28;20202;-86
2023/06/09 04:47:57;;;;;;;2.35;1.92;;;;;;;-146.25;100.00;57403.91;5092420;28;20205;-88
2023/06/09 04:50:25;;;;;;;2.00;1.77;;;;;;;-146.25;100.00;57403.91;5092310;28;20283;-88
2023/06/09 04:52:53;;;;;;;2.35;2.22;;;;;;;-146.25;100.00;57403.91;5092311;28;20671;-86
2023/06/09 04:55:25;;;;;;;2.50;2.30;;;;;;;-146.25;100.00;57403.91;5093065;28;20211;-87
2023/06/09 04:57:53;;;;;;;2.75;2.55;;;;;;;-146.25;100.00;57403.91;5092612;28;20212;-86
2023/06/09 05:00:22;;;;;;;2.30;2.20;;;;;;;-146.25;100.00;57403.91;5092757;28;20266;-86
2023/06/09 05:02:51;;;;;;;2.40;2.25;;;;;;;-146.25;100.00;57403.91;5091676;28;20244;-87
2023/06/09 05:05:20;;;;;;;2.13;2.03;;;;;;;-146.25;100.00;57403.91;5092183;28;20267;-86
2023/06/09 05:07:49;;;;;;;4.45;1.95;;;;;;;-146.25;100.00;57403.91;5092358;28;20296;-86
2023/06/09 05:10:16;;;;;;;2.75;2.05;;;;;;;-146.25;100.00;57403.91;5092066;28;20206;-87
2023/06/09 05:12:46;;;;;;;2.45;2.25;;;;;;;-146.25;100.00;57403.91;5092099;28;20277;-86
2023/06/09 05:15:15;;;;;;;2.13;2.03;;;;;;;-146.25;100.00;57403.91;5092007;28;20221;-86
2023/06/09 05:17:43;;;;;;;1.98;1.90;;;;;;;-146.25;100.00;57403.91;5092013;28;20318;-86
2023/06/09 05:20:10;;;;;;;3.20;2.25;;;;;;;-146.25;100.00;57403.91;5092100;28;20194;-87
2023/06/09 05:22:38;;;;;;;1.80;1.80;;;;;;;-146.25;100.00;57403.91;5092351;28;20614;-86
2023/06/09 05:25:10;;;;;;;2.10;2.00;;;;;;;-146.25;100.00;57403.91;5091603;28;20514;-87
2023/06/09 05:27:37;;;;;;;2.10;2.00;;;;;;;-146.25;100.00;57403.91;5091728;28;20206;-86
2023/06/09 05:30:06;;;;;;;2.28;2.17;;;;;;;-146.25;100.00;57403.91;5091389;28;20212;-86
2023/06/09 05:32:33;;;;;;;2.58;2.47;;;;;;;-146.25;100.00;57403.91;5093027;28;20215;-86
2023/06/09 05:35:01;;;;;;;1.95;1.85;;;;;;;-146.25;100.00;57403.91;5092147;28;20189;-87
2023/06/09 05:37:28;;;;;;;2.05;1.95;;;;;;;-146.25;100.00;57403.91;5093031;28;20197;-87
2023/06/09 05:39:57;;;;;;;1.73;1.63;;;;;;;-146.25;100.00;57403.91;5102893;28;20728;-88
2023/06/09 05:42:26;;;;;;;2.00;1.90;;;;;;;-146.25;100.00;57403.91;5092035;28;20198;-87
2023/06/09 05:44:53;;;;;;;5.00;2.67;;;;;;;-146.25;100.00;57403.91;5091625;28;20202;-86
2023/06/09 05:47:20;;;;;;;2.47;2.38;;;;;;;-146.25;100.00;57403.91;5091992;28;20208;-87
2023/06/09 05:49:50;;;;;;;2.22;2.13;;;;;;;-146.25;100.00;57403.91;5092057;28;20648;-87
2023/06/09 05:52:18;;;;;;;2.15;2.05;;;;;;;-146.25;100.00;57403.91;5092920;28;20201;-88
2023/06/09 05:54:47;;;;;;;2.03;1.83;;;;;;;-146.25;100.00;57403.91;5092331;28;20197;-87
2023/06/09 05:57:15;;;;;;;2.63;2.10;;;;;;;-146.25;100.00;57403.91;5091677;28;20296;-86
2023/06/09 05:59:44;;;;;;;2.38;2.28;;;;;;;-146.25;100.00;57403.91;5091756;28;20208;-86
2023/06/09 06:02:13;;;;;;;2.78;2.28;;;;;;;-146.25;100.00;57403.91;5091641;28;20229;-87
2023/06/09 06:04:47;;;;;;;2.00;1.77;;;;;;;-146.25;100.00;57403.91;5091360;28;20233;-86
2023/06/09 06:07:15;;;;;;;2.28;2.17;;;;;;;-146.25;100.00;57403.91;5092110;28;20587;-87
2023/06/09 06:09:42;;;;;;;2.33;2.22;;;;;;;-146.25;100.00;57403.91;5091475;28;20231;-86
2023/06/09 06:12:11;;;;;;;2.42;2.33;;;;;;;-146.25;100.00;57403.91;5091190;28;20261;-88
2023/06/09 06:14:38;;;;;;;2.40;2.20;;;;;;;-146.25;100.00;57403.91;5091153;28;20205;-87
2023/06/09 06:17:07;;;;;;;3.38;2.30;;;;;;;-146.25;100.00;57403.91;5091213;28;20198;-87
2023/06/09 06:19:35;;;;;;;2.28;2.08;;;;;;;-146.25;100.00;57403.91;5091141;28;20225;-86
2023/06/09 06:22:02;;;;;;;2.20;2.08;;;;;;;-146.25;100.00;57403.91;5091638;28;20193;-87
2023/06/09 06:24:29;;;;;;;2.17;2.08;;;;;;;-146.25;100.00;57403.91;5092013;28;20657;-86
2023/06/09 06:26:56;;;;;;;2.30;2.20;;;;;;;-146.25;100.00;57403.91;5091653;28;20225;-87
2023/06/09 06:29:23;;;;;;;2.97;1.98;;;;;;;-146.25;100.00;57403.91;5092962;28;20200;-87
2023/06/09 06:31:50;;;;;;;1.90;1.80;;;;;;;-146.25;100.00;57403.91;5097597;28;20201;-87
2023/06/09 06:34:19;;;;;;;2.40;1.70;;;;;;;-146.25;100.00;57403.91;5096485;28;20201;-88
2023/06/09 06:36:46;;;;;;;4.53;1.80;;;;;;;-146.25;100.00;57403.91;5097202;28;20202;-87
2023/06/09 06:39:13;;;;;;;4.65;2.05;;;;;;;-146.25;100.00;57403.91;5098605;28;20190;-88
2023/06/09 06:41:41;;;;;;;2.33;2.15;;;;;;;-146.25;100.00;57403.91;5098884;28;20833;-88
2023/06/09 06:44:09;;;;;;;2.05;1.95;;;;;;;-146.25;100.00;57403.91;5096217;28;20221;-87
2023/06/09 06:46:36;;;;;;;1.80;1.70;;;;;;;-146.25;100.00;57403.91;5091290;28;20258;-87
2023/06/09 06:49:04;;;;;;;1.88;1.85;;;;;;;-146.25;100.00;57403.91;5091379;28;20208;-87
2023/06/09 06:51:33;;;;;;;4.75;1.70;;;;;;;-146.25;100.00;57403.91;5091491;28;20203;-88
2023/06/09 06:54:01;;;;;;;1.77;1.67;;;;;;;-146.25;100.00;57403.91;5090898;28;20262;-87
2023/06/09 06:56:28;;;;;;;1.85;1.75;;;;;;;-146.25;100.00;57403.91;5091039;28;20202;-86
2023/06/09 06:58:55;;;;;;;2.15;1.98;;;;;;;-146.25;100.00;57403.91;5090792;28;20594;-88
2023/06/09 07:01:24;;;;;;;2.17;2.03;;;;;;;-146.25;100.00;57403.91;5090358;28;20298;-87
2023/06/09 07:03:58;;;;;;;3.15;2.50;;;;;;;-146.25;100.00;57403.91;5090598;28;20244;-86
2023/06/09 07:06:27;;;;;;;2.05;2.05;;;;;;;-146.25;100.00;57403.91;5090608;28;20201;-88
2023/06/09 07:08:56;;;;;;;3.53;2.20;;;;;;;-146.25;100.00;57403.91;5091170;28;20272;-86
2023/06/09 07:11:28;;;;;;;3.05;2.75;;;;;;;-146.25;100.00;57403.91;5090447;28;20212;-86
2023/06/09 07:13:57;;;;;;;2.55;2.30;;;;;;;-146.25;100.00;57403.91;5090241;28;20201;-87
2023/06/09 07:16:24;;;;;;;1.98;1.88;;;;;;;-146.25;100.00;57403.91;5090864;28;20228;-88
2023/06/09 07:18:51;;;;;;;2.80;2.45;;;;;;;-146.25;100.00;57403.91;5090969;28;20286;-88
2023/06/09 07:21:19;;;;;;;2.20;2.10;;;;;;;-146.25;100.00;57403.91;5091000;28;20209;-87
2023/06/09 07:23:46;;;;;;;1.92;1.83;;;;;;;-146.25;100.00;57403.91;5090596;28;20225;-87
2023/06/09 07:26:16;;;;;;;2.05;1.95;;;;;;;-146.25;100.00;57403.91;5090823;28;20193;-86
2023/06/09 07:28:46;;;;;;;2.30;2.20;;;;;;;-146.25;100.00;57403.91;5090227;28;20189;-88
2023/06/09 07:31:16;;;;;;;2.40;2.05;;;;;;;-146.25;100.00;57403.91;5090043;28;20315;-87
2023/06/09 07:33:45;;;;;;;2.45;2.25;;;;;;;-146.25;100.00;57403.91;5091894;28;20202;-87
2023/06/09 07:36:19;;;;;;;4.72;2.15;;;;;;;-146.25;100.00;57403.91;5091713;28;20655;-86
2023/06/09 07:38:47;;;;;;;2.28;2.10;;;;;;;-146.25;100.00;57403.91;5091460;28;20194;-87
2023/06/09 07:41:16;;;;;;;2.60;2.42;;;;;;;-146.25;100.00;57403.91;5090673;28;20229;-87
2023/06/09 07:43:45;;;;;;;2.22;2.13;;;;;;;-146.25;100.00;57403.91;5090016;28;20290;-88
2023/06/09 07:46:14;;;;;;;2.38;2.28;;;;;;;-146.25;100.00;57403.91;5090637;28;20271;-87
2023/06/09 07:48:42;;;;;;;3.60;2.58;;;;;;;-146.25;100.00;57403.91;5092939;28;20707;-87
2023/06/09 07:51:10;;;;;;;3.00;2.13;;;;;;;-146.25;100.00;57403.91;5094810;28;20217;-88
2023/06/09 07:53:38;;;;;;;3.20;2.13;;;;;;;-146.25;100.00;57403.91;5094663;28;20232;-86
2023/06/09 07:56:05;;;;;;;2.30;2.20;;;;;;;-146.25;100.00;57403.91;5094545;28;20245;-86
2023/06/09 07:58:34;;;;;;;2.20;2.10;;;;;;;-146.25;100.00;57403.91;5094315;28;20197;-87
2023/06/09 08:01:01;;;;;;;1.98;1.85;;;;;;;-146.25;100.00;57403.91;5095266;28;20220;-86
2023/06/09 08:03:29;;;;;;;2.63;2.42;;;;;;;-146.25;100.00;57403.91;5095060;28;20251;-86
2023/06/09 08:05:56;;;;;;;2.88;2.33;;;;;;;-146.25;100.00;57403.91;5094926;28;20206;-88
2023/06/09 08:08:27;;;;;;;2.95;2.75;;;;;;;-146.25;100.00;57403.91;5093927;28;20202;-88
2023/06/09 08:10:54;;;;;;;2.00;1.83;;;;;;;-146.25;100.00;57403.91;5093731;28;20264;-85
2023/06/09 08:13:23;;;;;;;2.03;1.92;;;;;;;-146.25;100.00;57403.91;5093793;28;20204;-86
2023/06/09 08:15:54;;;;;;;3.05;2.42;;;;;;;-146.25;100.00;57403.91;5093131;28;20201;-87
2023/06/09 08:18:21;;;;;;;2.58;2.38;;;;;;;-146.25;100.00;57403.91;5093649;28;20212;-88
2023/06/09 08:20:55;;;;;;;2.00;1.90;;;;;;;-146.25;100.00;57403.91;5093604;28;20202;-88
2023/06/09 08:23:22;;;;;;;2.28;2.17;;;;;;;-146.25;100.00;57403.91;5092572;28;20233;-86
2023/06/09 08:25:51;;;;;;;2.30;2.20;;;;;;;-146.25;100.00;57403.91;5093008;28;20540;-87
2023/06/09 08:28:20;;;;;;;2.25;2.10;;;;;;;-146.25;100.00;57403.91;5092926;28;20201;-87
2023/06/09 08:30:48;;;;;;;2.10;2.00;;;;;;;-146.25;100.00;57403.91;5092724;28;20236;-85
2023/06/09 08:33:17;;;;;;;3.17;2.00;;;;;;;-146.25;100.00;57403.91;5093322;28;20225;-88
2023/06/09 08:35:44;;;;;;;1.80;1.70;;;;;;;-146.25;100.00;57403.91;5093264;28;20196;-85
2023/06/09 08:38:11;;;;;;;2.13;2.03;;;;;;;-146.25;100.00;57403.91;5092874;28;20228;-86
2023/06/09 08:40:39;;;;;;;1.90;1.80;;;;;;;-146.25;100.00;57403.91;5093310;28;20198;-86
2023/06/09 08:43:06;;;;;;;1.83;1.73;;;;;;;-146.25;100.00;57403.91;5092972;28;20201;-87
2023/06/09 08:45:35;;;;;;;2.03;1.92;;;;;;;-146.25;100.00;57403.91;5092968;28;20292;-85
2023/06/09 08:48:03;;;;;;;2.38;1.85;;;;;;;-146.25;100.00;57403.91;5093332;28;20205;-86
2023/06/09 08:50:34;;;;;;;2.15;2.05;;;;;;;-146.25;100.00;57403.91;5093446;28;20193;-87
2023/06/09 08:53:01;;;;;;;1.95;1.85;;;;;;;-146.25;100.00;57403.91;5093326;28;20286;-87
2023/06/09 08:55:30;;;;;;;1.98;1.88;;;;;;;-146.25;100.00;57403.91;5093394;28;20197;-86
2023/06/09 08:57:57;;;;;;;1.83;1.73;;;;;;;-146.25;100.00;57403.91;5093527;28;20190;-86
2023/06/09 09:00:25;;;;;;;1.70;1.60;;;;;;;-146.25;100.00;57403.91;5091578;28;20269;-86
2023/06/09 09:02:53;;;;;;;3.60;2.28;;;;;;;-146.25;100.00;57403.91;5096850;28;20236;-85
2023/06/09 09:05:19;;;;;;;1.95;1.85;;;;;;;-146.25;100.00;57403.91;5096463;28;20225;-87
2023/06/09 09:07:49;;;;;;;2.28;1.95;;;;;;;-146.25;100.00;57403.91;5093510;28;20198;-87
2023/06/09 09:10:17;;;;;;;2.05;1.95;;;;;;;-146.25;100.00;57403.91;5092771;28;20194;-87
2023/06/09 09:12:49;;;;;;;2.17;2.08;;;;;;;-146.25;100.00;57403.91;5099759;28;20229;-87
2023/06/09 09:15:16;;;;;;;2.20;2.00;;;;;;;-146.25;100.00;57403.91;5105708;28;20258;-86
2023/06/09 09:17:45;;;;;;;4.07;1.98;;;;;;;-146.25;100.00;57403.91;5103649;28;20198;-84
2023/06/09 09:20:14;;;;;;;1.92;1.83;;;;;;;-146.25;100.00;57403.91;5104648;28;20265;-87
2023/06/09 09:22:50;;;;;;;2.10;2.00;;;;;;;-146.25;100.00;57403.91;5099279;28;20209;-87
2023/06/09 09:25:26;;;;;;;2.25;2.15;;;;;;;-146.25;100.00;57403.91;5096263;28;20225;-87
2023/06/09 09:28:04;;;;;;;4.80;2.17;;;;;;;-146.25;100.00;57403.91;5096137;28;20198;-86
2023/06/09 09:30:48;;;;;;;2.42;2.22;;;;;;;-146.25;100.00;57403.91;5093049;28;20209;-87
2023/06/09 09:33:18;;;;;;;2.00;1.90;;;;;;;-146.25;100.00;57403.91;5092052;28;20659;-88
2023/06/09 09:35:47;;;;;;;2.45;2.10;;;;;;;-146.25;100.00;57403.91;5091842;28;20202;-87
2023/06/09 09:38:18;;;;;;;2.10;2.00;;;;;;;-146.25;100.00;57403.91;5092017;28;20565;-87
2023/06/09 09:40:47;;;;;;;2.10;2.00;;;;;;;-146.25;100.00;57403.91;5091885;28;20198;-86
2023/06/09 09:43:15;;;;;;;2.67;2.20;;;;;;;-146.25;100.00;57403.91;5091883;28;20285;-87
2023/06/09 09:45:45;;;;;;;1.85;1.75;;;;;;;-146.25;100.00;57403.91;5091361;28;20222;-85
2023/06/09 09:48:13;;;;;;;2.42;2.28;;;;;;;-146.25;100.00;57403.91;5091630;28;20223;-87
2023/06/09 09:50:42;;;;;;;2.58;2.47;;;;;;;-146.25;100.00;57403.91;5091745;28;20202;-86
2023/06/09 09:53:10;;;;;;;2.28;2.17;;;;;;;-146.25;100.00;57403.91;5091691;28;20716;-87
2023/06/09 09:55:40;;;;;;;1.90;1.80;;;;;;;-146.25;100.00;57403.91;5091946;28;20198;-86
2023/06/09 09:58:08;;;;;;;1.80;1.75;;;;;;;-146.25;100.00;57403.91;5091202;28;20194;-88
2023/06/09 10:00:37;;;;;;;1.83;1.73;;;;;;;-146.25;100.00;57403.91;5091566;28;20195;-87
2023/06/09 10:03:09;;;;;;;2.10;2.00;;;;;;;-146.25;100.00;57403.91;5091168;28;20254;-86
2023/06/09 10:05:39;;;;;;;2.70;1.88;;;;;;;-146.25;100.00;57403.91;5091439;28;20226;-87
2023/06/09 10:08:07;;;;;;;2.17;1.98;;;;;;;-146.25;100.00;57403.91;5092007;28;20198;-86
2023/06/09 10:10:35;;;;;;;2.30;2.20;;;;;;;-146.25;100.00;57403.91;5090570;28;20260;-86
2023/06/09 10:13:04;;;;;;;1.75;1.75;;;;;;;-146.25;100.00;57403.91;5091326;28;20205;-87
2023/06/09 10:15:33;;;;;;;2.53;2.33;;;;;;;-146.25;100.00;57403.91;5091438;28;20267;-86
2023/06/09 10:18:01;;;;;;;2.22;2.13;;;;;;;-146.25;100.00;57403.91;5091296;28;20593;-87
2023/06/09 10:20:28;;;;;;;1.67;1.63;;;;;;;-146.25;100.00;57403.91;5091519;28;20247;-87
2023/06/09 10:22:55;;;;;;;1.40;1.40;;;;;;;-146.25;100.00;57403.91;5091063;28;20675;-88
2023/06/09 10:25:26;;;;;;;2.13;1.88;;;;;;;-146.25;100.00;57403.91;5090904;28;20233;-87
2023/06/09 10:27:53;;;;;;;1.80;1.70;;;;;;;-146.25;100.00;57403.91;5091382;28;20278;-88
2023/06/09 10:30:23;;;;;;;1.60;1.60;;;;;;;-146.25;100.00;57403.91;5090982;28;20208;-86
2023/06/09 10:33:09;;;;;;;3.83;1.92;;;;;;;-146.25;100.00;57403.91;5091333;28;20206;-87
2023/06/09 10:35:39;;;;;;;2.13;1.90;;;;;;;-146.25;100.00;57403.91;5091784;28;20223;-86
2023/06/09 10:38:28;;;;;;;1.52;1.52;;;;;;;-146.25;100.00;57403.91;5090867;28;20214;-86
2023/06/09 10:41:06;;;;;;;1.70;1.70;;;;;;;-146.25;100.00;57403.91;5091786;28;20200;-87
2023/06/09 10:43:51;;;;;;;1.98;1.80;;;;;;;-146.25;100.00;57403.91;5091973;28;20192;-87
2023/06/09 10:46:40;;;;;;;1.88;1.88;;;;;;;-146.25;100.00;57403.91;5092149;28;20648;-86
2023/06/09 10:49:07;;;;;;;2.67;1.50;;;;;;;-146.25;100.00;57403.91;5091154;28;20205;-87
2023/06/09 10:51:45;;;;;;;1.35;1.25;;;;;;;-146.25;100.00;57403.91;5090936;28;20259;-87
2023/06/09 10:54:22;;;;;;;3.83;2.63;;;;;;;-146.25;100.00;57403.91;5090884;28;20208;-85
2023/06/09 10:56:53;;;;;;;1.38;1.10;;;;;;;-146.25;100.00;57403.91;5090904;28;20194;-87
2023/06/09 10:59:53;;;;;;;1.02;1.02;;;;;;;-146.25;100.00;57403.91;5090703;28;20235;-88
2023/06/09 11:02:24;;;;;;;1.50;1.40;;;;;;;-146.25;100.00;57403.91;5090394;28;20229;-87
2023/06/09 11:04:53;;;;;;;4.30;4.00;;;;;;;-146.25;100.00;57403.91;5090452;28;20295;-86
2023/06/09 11:07:22;;;;;;;1.60;1.60;;;;;;;-146.25;100.00;57403.91;5090781;28;20202;-87
2023/06/09 11:10:35;;;;;;;7.47;6.53;;;;;;;-146.25;100.00;57403.91;5090834;28;20247;-86
2023/06/09 11:13:03;;;;;;;1.42;1.42;;;;;;;-146.25;100.00;57403.91;5090925;28;20645;-87
2023/06/09 11:16:01;;;;;;;1.90;1.80;;;;;;;-146.25;100.00;57403.91;5091134;28;20198;-86
2023/06/09 11:18:31;;;;;;;1.35;1.35;;;;;;;-146.25;100.00;57403.91;5091460;28;20226;-87
2023/06/09 11:21:23;;;;;;;1.60;1.50;;;;;;;-146.25;100.00;57403.91;5091084;28;20204;-87